sensor_id;sensor_type;location;lat;lon;timestamp;P1;durP1;ratioP1;P2;durP2;ratioP2
21777;SDS011;11050;52.222;20.916;2023-02-28T00:00:23;17.00;;;7.60;;
21777;SDS011;11050;52.222;20.916;2023-02-28T00:02:50;18.13;;;8.33;;
21777;SDS011;11050;52.222;20.916;2023-02-28T00:05:17;16.27;;;8.13;;
21777;SDS011;11050;52.222;20.916;2023-02-28T00:07:47;17.33;;;7.90;;
21777;SDS011;11050;52.222;20.916;2023-02-28T00:10:18;20.43;;;8.23;;
21777;SDS011;11050;52.222;20.916;2023-02-28T00:12:52;14.37;;;7.17;;
21777;SDS011;11050;52.222;20.916;2023-02-28T00:15:22;20.43;;;9.00;;
21777;SDS011;11050;52.222;20.916;2023-02-28T00:17:49;18.20;;;8.73;;
21777;SDS011;11050;52.222;20.916;2023-02-28T00:20:15;16.83;;;7.70;;
21777;SDS011;11050;52.222;20.916;2023-02-28T00:22:43;15.50;;;7.13;;
21777;SDS011;11050;52.222;20.916;2023-02-28T00:25:13;14.90;;;7.10;;
21777;SDS011;11050;52.222;20.916;2023-02-28T00:27:43;18.10;;;7.10;;
21777;SDS011;11050;52.222;20.916;2023-02-28T00:30:11;15.03;;;7.17;;
21777;SDS011;11050;52.222;20.916;2023-02-28T00:32:40;13.63;;;6.97;;
21777;SDS011;11050;52.222;20.916;2023-02-28T00:35:06;12.53;;;5.63;;
21777;SDS011;11050;52.222;20.916;2023-02-28T00:37:33;12.37;;;6.70;;
21777;SDS011;11050;52.222;20.916;2023-02-28T00:39:59;11.37;;;5.97;;
21777;SDS011;11050;52.222;20.916;2023-02-28T00:42:25;13.67;;;6.43;;
21777;SDS011;11050;52.222;20.916;2023-02-28T00:44:51;12.93;;;6.53;;
21777;SDS011;11050;52.222;20.916;2023-02-28T00:47:17;11.60;;;5.83;;
21777;SDS011;11050;52.222;20.916;2023-02-28T00:49:42;12.80;;;5.97;;
21777;SDS011;11050;52.222;20.916;2023-02-28T00:52:08;14.27;;;6.17;;
21777;SDS011;11050;52.222;20.916;2023-02-28T00:54:35;14.87;;;6.73;;
21777;SDS011;11050;52.222;20.916;2023-02-28T00:57:00;12.67;;;7.10;;
21777;SDS011;11050;52.222;20.916;2023-02-28T00:59:26;11.30;;;6.30;;
21777;SDS011;11050;52.222;20.916;2023-02-28T01:01:52;10.83;;;5.73;;
21777;SDS011;11050;52.222;20.916;2023-02-28T01:04:18;17.23;;;6.63;;
21777;SDS011;11050;52.222;20.916;2023-02-28T01:06:43;11.80;;;6.43;;
21777;SDS011;11050;52.222;20.916;2023-02-28T01:09:09;14.90;;;6.33;;
21777;SDS011;11050;52.222;20.916;2023-02-28T01:11:36;13.90;;;6.23;;
21777;SDS011;11050;52.222;20.916;2023-02-28T01:14:02;14.70;;;6.63;;
21777;SDS011;11050;52.222;20.916;2023-02-28T01:16:29;16.10;;;6.77;;
21777;SDS011;11050;52.222;20.916;2023-02-28T01:18:55;13.17;;;6.53;;
21777;SDS011;11050;52.222;20.916;2023-02-28T01:21:21;11.53;;;5.93;;
21777;SDS011;11050;52.222;20.916;2023-02-28T01:23:47;13.87;;;6.20;;
21777;SDS011;11050;52.222;20.916;2023-02-28T01:26:15;12.37;;;6.30;;
21777;SDS011;11050;52.222;20.916;2023-02-28T01:28:43;12.20;;;6.43;;
21777;SDS011;11050;52.222;20.916;2023-02-28T01:31:10;13.93;;;6.83;;
21777;SDS011;11050;52.222;20.916;2023-02-28T01:33:36;15.67;;;6.50;;
21777;SDS011;11050;52.222;20.916;2023-02-28T01:36:04;13.63;;;6.00;;
21777;SDS011;11050;52.222;20.916;2023-02-28T01:38:34;14.33;;;7.27;;
21777;SDS011;11050;52.222;20.916;2023-02-28T01:41:00;16.30;;;6.43;;
21777;SDS011;11050;52.222;20.916;2023-02-28T01:43:30;13.80;;;6.83;;
21777;SDS011;11050;52.222;20.916;2023-02-28T01:46:18;14.00;;;7.20;;
21777;SDS011;11050;52.222;20.916;2023-02-28T01:48:48;13.63;;;6.80;;
21777;SDS011;11050;52.222;20.916;2023-02-28T01:51:41;15.63;;;7.20;;
21777;SDS011;11050;52.222;20.916;2023-02-28T01:54:18;15.73;;;7.03;;
21777;SDS011;11050;52.222;20.916;2023-02-28T01:56:53;15.13;;;7.40;;
21777;SDS011;11050;52.222;20.916;2023-02-28T01:59:39;16.60;;;6.63;;
21777;SDS011;11050;52.222;20.916;2023-02-28T02:02:16;14.47;;;6.77;;
21777;SDS011;11050;52.222;20.916;2023-02-28T02:04:50;15.33;;;7.20;;
21777;SDS011;11050;52.222;20.916;2023-02-28T02:07:37;16.33;;;7.33;;
21777;SDS011;11050;52.222;20.916;2023-02-28T02:13:02;16.60;;;7.33;;
21777;SDS011;11050;52.222;20.916;2023-02-28T02:16:20;16.57;;;7.23;;
21777;SDS011;11050;52.222;20.916;2023-02-28T02:22:43;14.40;;;6.83;;
21777;SDS011;11050;52.222;20.916;2023-02-28T02:25:56;16.53;;;7.60;;
21777;SDS011;11050;52.222;20.916;2023-02-28T02:32:06;16.90;;;7.30;;
21777;SDS011;11050;52.222;20.916;2023-02-28T02:35:12;15.13;;;7.10;;
21777;SDS011;11050;52.222;20.916;2023-02-28T02:40:56;11.77;;;6.87;;
21777;SDS011;11050;52.222;20.916;2023-02-28T02:43:40;17.43;;;7.27;;
21777;SDS011;11050;52.222;20.916;2023-02-28T02:46:20;14.63;;;7.03;;
21777;SDS011;11050;52.222;20.916;2023-02-28T02:49:04;17.60;;;8.40;;
21777;SDS011;11050;52.222;20.916;2023-02-28T02:51:36;16.03;;;7.70;;
21777;SDS011;11050;52.222;20.916;2023-02-28T02:54:08;17.53;;;8.40;;
21777;SDS011;11050;52.222;20.916;2023-02-28T02:56:41;19.47;;;8.70;;
21777;SDS011;11050;52.222;20.916;2023-02-28T02:59:12;16.90;;;9.07;;
21777;SDS011;11050;52.222;20.916;2023-02-28T03:01:46;17.60;;;8.10;;
21777;SDS011;11050;52.222;20.916;2023-02-28T03:04:20;16.03;;;8.00;;
21777;SDS011;11050;52.222;20.916;2023-02-28T03:06:52;15.13;;;7.87;;
21777;SDS011;11050;52.222;20.916;2023-02-28T03:09:24;17.83;;;8.80;;
21777;SDS011;11050;52.222;20.916;2023-02-28T03:11:52;18.53;;;8.53;;
21777;SDS011;11050;52.222;20.916;2023-02-28T03:14:40;18.40;;;8.37;;
21777;SDS011;11050;52.222;20.916;2023-02-28T03:20:29;19.23;;;8.90;;
21777;SDS011;11050;52.222;20.916;2023-02-28T03:23:31;16.87;;;8.33;;
21777;SDS011;11050;52.222;20.916;2023-02-28T03:26:24;16.67;;;8.77;;
21777;SDS011;11050;52.222;20.916;2023-02-28T03:32:29;20.77;;;10.53;;
21777;SDS011;11050;52.222;20.916;2023-02-28T03:34:48;20.43;;;10.53;;
21777;SDS011;11050;52.222;20.916;2023-02-28T03:37:25;23.00;;;9.80;;
21777;SDS011;11050;52.222;20.916;2023-02-28T03:39:56;21.20;;;10.13;;
21777;SDS011;11050;52.222;20.916;2023-02-28T03:42:31;23.23;;;10.70;;
21777;SDS011;11050;52.222;20.916;2023-02-28T03:45:08;20.60;;;10.40;;
21777;SDS011;11050;52.222;20.916;2023-02-28T03:50:29;20.83;;;9.00;;
21777;SDS011;11050;52.222;20.916;2023-02-28T03:53:12;18.63;;;9.37;;
21777;SDS011;11050;52.222;20.916;2023-02-28T03:55:45;20.57;;;9.77;;
21777;SDS011;11050;52.222;20.916;2023-02-28T03:58:41;23.03;;;10.50;;
21777;SDS011;11050;52.222;20.916;2023-02-28T04:01:39;24.30;;;10.60;;
21777;SDS011;11050;52.222;20.916;2023-02-28T04:04:09;16.23;;;8.60;;
21777;SDS011;11050;52.222;20.916;2023-02-28T04:06:37;21.67;;;9.20;;
21777;SDS011;11050;52.222;20.916;2023-02-28T04:09:05;20.70;;;9.57;;
21777;SDS011;11050;52.222;20.916;2023-02-28T04:11:34;20.87;;;10.50;;
21777;SDS011;11050;52.222;20.916;2023-02-28T04:14:04;24.43;;;10.63;;
21777;SDS011;11050;52.222;20.916;2023-02-28T04:16:32;21.53;;;10.13;;
21777;SDS011;11050;52.222;20.916;2023-02-28T04:19:04;23.20;;;11.43;;
21777;SDS011;11050;52.222;20.916;2023-02-28T04:21:33;22.20;;;10.77;;
21777;SDS011;11050;52.222;20.916;2023-02-28T04:24:02;23.53;;;11.27;;
21777;SDS011;11050;52.222;20.916;2023-02-28T04:26:31;19.90;;;10.30;;
21777;SDS011;11050;52.222;20.916;2023-02-28T04:29:00;24.20;;;10.40;;
21777;SDS011;11050;52.222;20.916;2023-02-28T04:31:29;25.07;;;11.40;;
21777;SDS011;11050;52.222;20.916;2023-02-28T04:33:55;20.67;;;10.67;;
21777;SDS011;11050;52.222;20.916;2023-02-28T04:36:21;19.63;;;9.80;;
21777;SDS011;11050;52.222;20.916;2023-02-28T04:38:48;22.80;;;11.60;;
21777;SDS011;11050;52.222;20.916;2023-02-28T04:41:14;21.53;;;10.63;;
21777;SDS011;11050;52.222;20.916;2023-02-28T04:43:41;25.77;;;11.67;;
21777;SDS011;11050;52.222;20.916;2023-02-28T04:46:08;23.57;;;10.90;;
21777;SDS011;11050;52.222;20.916;2023-02-28T04:48:35;25.93;;;11.60;;
21777;SDS011;11050;52.222;20.916;2023-02-28T04:51:03;23.57;;;11.43;;
21777;SDS011;11050;52.222;20.916;2023-02-28T04:53:32;24.03;;;11.70;;
21777;SDS011;11050;52.222;20.916;2023-02-28T04:55:59;22.97;;;10.00;;
21777;SDS011;11050;52.222;20.916;2023-02-28T04:58:25;22.07;;;10.40;;
21777;SDS011;11050;52.222;20.916;2023-02-28T05:00:53;19.80;;;10.90;;
21777;SDS011;11050;52.222;20.916;2023-02-28T05:03:25;22.77;;;11.37;;
21777;SDS011;11050;52.222;20.916;2023-02-28T05:05:51;24.50;;;11.50;;
21777;SDS011;11050;52.222;20.916;2023-02-28T05:08:17;26.10;;;12.00;;
21777;SDS011;11050;52.222;20.916;2023-02-28T05:10:42;23.93;;;11.63;;
21777;SDS011;11050;52.222;20.916;2023-02-28T05:13:10;22.47;;;11.30;;
21777;SDS011;11050;52.222;20.916;2023-02-28T05:15:37;21.97;;;11.23;;
21777;SDS011;11050;52.222;20.916;2023-02-28T05:18:03;24.90;;;11.53;;
21777;SDS011;11050;52.222;20.916;2023-02-28T05:20:29;29.13;;;11.60;;
21777;SDS011;11050;52.222;20.916;2023-02-28T05:22:55;29.03;;;12.17;;
21777;SDS011;11050;52.222;20.916;2023-02-28T05:25:24;24.33;;;11.43;;
21777;SDS011;11050;52.222;20.916;2023-02-28T05:27:50;26.77;;;11.70;;
21777;SDS011;11050;52.222;20.916;2023-02-28T05:30:16;23.67;;;11.53;;
21777;SDS011;11050;52.222;20.916;2023-02-28T05:32:42;27.73;;;12.73;;
21777;SDS011;11050;52.222;20.916;2023-02-28T05:35:08;25.30;;;12.40;;
21777;SDS011;11050;52.222;20.916;2023-02-28T05:37:36;25.27;;;12.30;;
21777;SDS011;11050;52.222;20.916;2023-02-28T05:40:03;25.17;;;12.10;;
21777;SDS011;11050;52.222;20.916;2023-02-28T05:42:32;23.07;;;12.33;;
21777;SDS011;11050;52.222;20.916;2023-02-28T05:44:58;23.67;;;11.60;;
21777;SDS011;11050;52.222;20.916;2023-02-28T05:47:24;30.07;;;12.37;;
21777;SDS011;11050;52.222;20.916;2023-02-28T05:49:50;30.93;;;12.47;;
21777;SDS011;11050;52.222;20.916;2023-02-28T05:52:15;34.73;;;13.10;;
21777;SDS011;11050;52.222;20.916;2023-02-28T05:54:42;29.77;;;12.80;;
21777;SDS011;11050;52.222;20.916;2023-02-28T05:57:07;27.93;;;14.13;;
21777;SDS011;11050;52.222;20.916;2023-02-28T05:59:33;28.63;;;14.00;;
21777;SDS011;11050;52.222;20.916;2023-02-28T06:01:59;33.07;;;13.77;;
21777;SDS011;11050;52.222;20.916;2023-02-28T06:04:24;33.03;;;15.40;;
21777;SDS011;11050;52.222;20.916;2023-02-28T06:06:50;33.43;;;14.03;;
21777;SDS011;11050;52.222;20.916;2023-02-28T06:09:16;31.37;;;15.33;;
21777;SDS011;11050;52.222;20.916;2023-02-28T06:11:43;38.67;;;16.07;;
21777;SDS011;11050;52.222;20.916;2023-02-28T06:14:15;35.73;;;15.83;;
21777;SDS011;11050;52.222;20.916;2023-02-28T06:16:44;34.90;;;16.10;;
21777;SDS011;11050;52.222;20.916;2023-02-28T06:19:10;38.10;;;16.67;;
21777;SDS011;11050;52.222;20.916;2023-02-28T06:21:36;37.60;;;17.97;;
21777;SDS011;11050;52.222;20.916;2023-02-28T06:24:02;45.50;;;19.43;;
21777;SDS011;11050;52.222;20.916;2023-02-28T06:26:29;41.90;;;18.10;;
21777;SDS011;11050;52.222;20.916;2023-02-28T06:28:55;39.67;;;18.63;;
21777;SDS011;11050;52.222;20.916;2023-02-28T06:31:21;47.20;;;20.33;;
21777;SDS011;11050;52.222;20.916;2023-02-28T06:33:48;41.20;;;17.73;;
21777;SDS011;11050;52.222;20.916;2023-02-28T06:36:15;41.47;;;17.60;;
21777;SDS011;11050;52.222;20.916;2023-02-28T06:38:42;34.17;;;17.43;;
21777;SDS011;11050;52.222;20.916;2023-02-28T06:41:09;41.20;;;17.20;;
21777;SDS011;11050;52.222;20.916;2023-02-28T06:43:37;34.70;;;15.70;;
21777;SDS011;11050;52.222;20.916;2023-02-28T06:46:07;40.83;;;17.73;;
21777;SDS011;11050;52.222;20.916;2023-02-28T06:48:35;36.67;;;15.43;;
21777;SDS011;11050;52.222;20.916;2023-02-28T06:51:02;35.33;;;15.77;;
21777;SDS011;11050;52.222;20.916;2023-02-28T06:53:38;35.70;;;16.17;;
21777;SDS011;11050;52.222;20.916;2023-02-28T06:56:06;36.97;;;16.13;;
21777;SDS011;11050;52.222;20.916;2023-02-28T06:58:35;31.93;;;16.03;;
21777;SDS011;11050;52.222;20.916;2023-02-28T07:01:00;46.73;;;16.23;;
21777;SDS011;11050;52.222;20.916;2023-02-28T07:03:27;38.17;;;15.77;;
21777;SDS011;11050;52.222;20.916;2023-02-28T07:05:53;36.37;;;14.33;;
21777;SDS011;11050;52.222;20.916;2023-02-28T07:08:21;26.70;;;12.90;;
21777;SDS011;11050;52.222;20.916;2023-02-28T07:10:53;30.97;;;13.90;;
21777;SDS011;11050;52.222;20.916;2023-02-28T07:13:22;32.27;;;12.60;;
21777;SDS011;11050;52.222;20.916;2023-02-28T07:15:56;26.73;;;12.30;;
21777;SDS011;11050;52.222;20.916;2023-02-28T07:18:28;26.10;;;12.07;;
21777;SDS011;11050;52.222;20.916;2023-02-28T07:20:54;22.40;;;9.20;;
21777;SDS011;11050;52.222;20.916;2023-02-28T07:23:21;16.83;;;8.57;;
21777;SDS011;11050;52.222;20.916;2023-02-28T07:25:47;14.80;;;7.50;;
21777;SDS011;11050;52.222;20.916;2023-02-28T07:28:14;15.73;;;7.50;;
21777;SDS011;11050;52.222;20.916;2023-02-28T07:30:40;12.53;;;6.70;;
21777;SDS011;11050;52.222;20.916;2023-02-28T07:33:06;9.60;;;5.73;;
21777;SDS011;11050;52.222;20.916;2023-02-28T07:35:32;10.80;;;5.70;;
21777;SDS011;11050;52.222;20.916;2023-02-28T07:37:58;10.60;;;5.67;;
21777;SDS011;11050;52.222;20.916;2023-02-28T07:40:24;12.00;;;5.73;;
21777;SDS011;11050;52.222;20.916;2023-02-28T07:42:50;10.13;;;6.40;;
21777;SDS011;11050;52.222;20.916;2023-02-28T07:45:16;16.77;;;7.30;;
21777;SDS011;11050;52.222;20.916;2023-02-28T07:47:44;15.50;;;7.70;;
21777;SDS011;11050;52.222;20.916;2023-02-28T07:50:11;15.67;;;8.17;;
21777;SDS011;11050;52.222;20.916;2023-02-28T07:52:39;18.50;;;8.80;;
21777;SDS011;11050;52.222;20.916;2023-02-28T07:55:06;23.30;;;9.60;;
21777;SDS011;11050;52.222;20.916;2023-02-28T07:57:34;18.77;;;9.03;;
21777;SDS011;11050;52.222;20.916;2023-02-28T08:00:00;16.70;;;7.73;;
21777;SDS011;11050;52.222;20.916;2023-02-28T08:02:28;15.40;;;8.27;;
21777;SDS011;11050;52.222;20.916;2023-02-28T08:04:54;16.07;;;8.53;;
21777;SDS011;11050;52.222;20.916;2023-02-28T08:07:20;13.33;;;7.10;;
21777;SDS011;11050;52.222;20.916;2023-02-28T08:09:46;14.17;;;7.20;;
21777;SDS011;11050;52.222;20.916;2023-02-28T08:12:12;14.27;;;8.00;;
21777;SDS011;11050;52.222;20.916;2023-02-28T08:14:37;13.93;;;7.57;;
21777;SDS011;11050;52.222;20.916;2023-02-28T08:17:04;18.63;;;7.93;;
21777;SDS011;11050;52.222;20.916;2023-02-28T08:19:31;13.50;;;7.17;;
21777;SDS011;11050;52.222;20.916;2023-02-28T08:21:57;11.70;;;6.70;;
21777;SDS011;11050;52.222;20.916;2023-02-28T08:24:23;13.20;;;7.63;;
21777;SDS011;11050;52.222;20.916;2023-02-28T08:26:49;9.83;;;6.37;;
21777;SDS011;11050;52.222;20.916;2023-02-28T08:29:15;13.37;;;7.33;;
21777;SDS011;11050;52.222;20.916;2023-02-28T08:31:41;9.83;;;6.53;;
21777;SDS011;11050;52.222;20.916;2023-02-28T08:34:12;10.87;;;6.30;;
21777;SDS011;11050;52.222;20.916;2023-02-28T08:36:40;11.07;;;6.57;;
21777;SDS011;11050;52.222;20.916;2023-02-28T08:39:07;10.63;;;6.93;;
21777;SDS011;11050;52.222;20.916;2023-02-28T08:41:34;11.23;;;6.53;;
21777;SDS011;11050;52.222;20.916;2023-02-28T08:43:59;13.00;;;7.33;;
21777;SDS011;11050;52.222;20.916;2023-02-28T08:46:26;11.93;;;7.00;;
21777;SDS011;11050;52.222;20.916;2023-02-28T08:48:52;12.40;;;7.20;;
21777;SDS011;11050;52.222;20.916;2023-02-28T08:51:21;12.83;;;6.73;;
21777;SDS011;11050;52.222;20.916;2023-02-28T08:53:51;13.87;;;6.93;;
21777;SDS011;11050;52.222;20.916;2023-02-28T08:56:19;12.70;;;7.13;;
21777;SDS011;11050;52.222;20.916;2023-02-28T08:58:45;13.60;;;7.03;;
21777;SDS011;11050;52.222;20.916;2023-02-28T09:01:14;13.00;;;6.67;;
21777;SDS011;11050;52.222;20.916;2023-02-28T09:03:42;12.10;;;7.20;;
21777;SDS011;11050;52.222;20.916;2023-02-28T09:06:10;13.50;;;7.47;;
21777;SDS011;11050;52.222;20.916;2023-02-28T09:08:38;14.50;;;7.00;;
21777;SDS011;11050;52.222;20.916;2023-02-28T09:11:05;14.93;;;6.93;;
21777;SDS011;11050;52.222;20.916;2023-02-28T09:13:32;14.53;;;6.90;;
21777;SDS011;11050;52.222;20.916;2023-02-28T09:15:58;16.27;;;7.53;;
21777;SDS011;11050;52.222;20.916;2023-02-28T09:18:27;16.00;;;8.17;;
21777;SDS011;11050;52.222;20.916;2023-02-28T09:20:53;13.03;;;7.57;;
21777;SDS011;11050;52.222;20.916;2023-02-28T09:23:19;11.47;;;7.33;;
21777;SDS011;11050;52.222;20.916;2023-02-28T09:25:49;15.70;;;7.60;;
21777;SDS011;11050;52.222;20.916;2023-02-28T09:28:19;14.17;;;7.80;;
21777;SDS011;11050;52.222;20.916;2023-02-28T09:30:46;13.17;;;7.73;;
21777;SDS011;11050;52.222;20.916;2023-02-28T09:33:15;16.97;;;6.97;;
21777;SDS011;11050;52.222;20.916;2023-02-28T09:35:41;15.43;;;8.23;;
21777;SDS011;11050;52.222;20.916;2023-02-28T09:38:07;20.73;;;8.20;;
21777;SDS011;11050;52.222;20.916;2023-02-28T09:40:36;20.37;;;9.07;;
21777;SDS011;11050;52.222;20.916;2023-02-28T09:43:23;12.50;;;7.07;;
21777;SDS011;11050;52.222;20.916;2023-02-28T09:46:18;13.43;;;8.00;;
21777;SDS011;11050;52.222;20.916;2023-02-28T09:48:54;16.47;;;8.37;;
21777;SDS011;11050;52.222;20.916;2023-02-28T09:54:15;18.37;;;8.10;;
21777;SDS011;11050;52.222;20.916;2023-02-28T09:56:51;14.93;;;8.03;;
21777;SDS011;11050;52.222;20.916;2023-02-28T10:02:34;15.43;;;8.73;;
21777;SDS011;11050;52.222;20.916;2023-02-28T10:05:13;14.40;;;7.60;;
21777;SDS011;11050;52.222;20.916;2023-02-28T10:07:53;14.47;;;8.10;;
21777;SDS011;11050;52.222;20.916;2023-02-28T10:10:46;13.73;;;7.40;;
21777;SDS011;11050;52.222;20.916;2023-02-28T10:13:27;14.50;;;7.57;;
21777;SDS011;11050;52.222;20.916;2023-02-28T10:16:20;12.53;;;6.47;;
21777;SDS011;11050;52.222;20.916;2023-02-28T10:19:03;10.77;;;6.77;;
21777;SDS011;11050;52.222;20.916;2023-02-28T10:21:46;12.67;;;6.93;;
21777;SDS011;11050;52.222;20.916;2023-02-28T10:29:51;17.70;;;7.33;;
21777;SDS011;11050;52.222;20.916;2023-02-28T10:32:21;13.53;;;7.53;;
21777;SDS011;11050;52.222;20.916;2023-02-28T10:35:06;14.30;;;7.73;;
21777;SDS011;11050;52.222;20.916;2023-02-28T10:37:40;13.23;;;8.00;;
21777;SDS011;11050;52.222;20.916;2023-02-28T10:48:32;14.97;;;8.33;;
21777;SDS011;11050;52.222;20.916;2023-02-28T10:51:00;18.07;;;9.17;;
21777;SDS011;11050;52.222;20.916;2023-02-28T10:56:20;14.23;;;7.63;;
21777;SDS011;11050;52.222;20.916;2023-02-28T10:58:57;15.70;;;7.87;;
21777;SDS011;11050;52.222;20.916;2023-02-28T11:03:57;15.30;;;8.13;;
21777;SDS011;11050;52.222;20.916;2023-02-28T11:06:30;14.33;;;8.27;;
21777;SDS011;11050;52.222;20.916;2023-02-28T11:09:00;12.13;;;8.20;;
21777;SDS011;11050;52.222;20.916;2023-02-28T11:11:31;17.23;;;8.80;;
21777;SDS011;11050;52.222;20.916;2023-02-28T11:16:51;13.80;;;8.10;;
21777;SDS011;11050;52.222;20.916;2023-02-28T11:19:20;15.60;;;8.87;;
21777;SDS011;11050;52.222;20.916;2023-02-28T11:21:53;14.80;;;8.90;;
21777;SDS011;11050;52.222;20.916;2023-02-28T11:27:02;14.27;;;9.63;;
21777;SDS011;11050;52.222;20.916;2023-02-28T11:29:29;14.17;;;8.80;;
21777;SDS011;11050;52.222;20.916;2023-02-28T11:34:47;15.43;;;9.07;;
21777;SDS011;11050;52.222;20.916;2023-02-28T11:37:39;17.07;;;9.77;;
21777;SDS011;11050;52.222;20.916;2023-02-28T11:40:05;18.50;;;11.03;;
21777;SDS011;11050;52.222;20.916;2023-02-28T11:48:17;13.07;;;9.33;;
21777;SDS011;11050;52.222;20.916;2023-02-28T11:56:55;15.90;;;10.13;;
21777;SDS011;11050;52.222;20.916;2023-02-28T12:02:28;16.33;;;10.53;;
21777;SDS011;11050;52.222;20.916;2023-02-28T12:17:30;15.15;;;10.73;;
21777;SDS011;11050;52.222;20.916;2023-02-28T12:23:01;14.75;;;10.63;;
21777;SDS011;11050;52.222;20.916;2023-02-28T12:28:26;15.02;;;9.65;;
21777;SDS011;11050;52.222;20.916;2023-02-28T12:31:19;15.93;;;10.52;;
21777;SDS011;11050;52.222;20.916;2023-02-28T12:33:51;15.43;;;10.95;;
21777;SDS011;11050;52.222;20.916;2023-02-28T12:36:25;18.80;;;11.00;;
21777;SDS011;11050;52.222;20.916;2023-02-28T12:38:55;17.02;;;10.85;;
21777;SDS011;11050;52.222;20.916;2023-02-28T12:44:20;15.73;;;10.95;;
21777;SDS011;11050;52.222;20.916;2023-02-28T12:46:57;16.17;;;11.35;;
21777;SDS011;11050;52.222;20.916;2023-02-28T12:49:33;13.60;;;10.15;;
21777;SDS011;11050;52.222;20.916;2023-02-28T12:52:25;13.18;;;10.23;;
21777;SDS011;11050;52.222;20.916;2023-02-28T13:04:07;14.40;;;10.48;;
21777;SDS011;11050;52.222;20.916;2023-02-28T13:07:10;15.80;;;11.73;;
21777;SDS011;11050;52.222;20.916;2023-02-28T13:09:53;15.05;;;11.18;;
21777;SDS011;11050;52.222;20.916;2023-02-28T13:12:22;16.00;;;11.48;;
21777;SDS011;11050;52.222;20.916;2023-02-28T13:14:49;14.35;;;11.85;;
21777;SDS011;11050;52.222;20.916;2023-02-28T13:17:23;14.25;;;10.35;;
21777;SDS011;11050;52.222;20.916;2023-02-28T13:22:20;14.65;;;10.50;;
21777;SDS011;11050;52.222;20.916;2023-02-28T13:28:09;17.20;;;10.57;;
21777;SDS011;11050;52.222;20.916;2023-02-28T13:36:27;15.02;;;10.95;;
21777;SDS011;11050;52.222;20.916;2023-02-28T13:39:02;13.30;;;9.40;;
21777;SDS011;11050;52.222;20.916;2023-02-28T13:47:43;15.18;;;10.07;;
21777;SDS011;11050;52.222;20.916;2023-02-28T14:07:00;16.80;;;10.65;;
21777;SDS011;11050;52.222;20.916;2023-02-28T14:09:29;14.90;;;9.77;;
21777;SDS011;11050;52.222;20.916;2023-02-28T14:27:07;12.73;;;9.63;;
21777;SDS011;11050;52.222;20.916;2023-02-28T14:35:27;14.90;;;8.95;;
21777;SDS011;11050;52.222;20.916;2023-02-28T14:38:25;15.25;;;9.38;;
21777;SDS011;11050;52.222;20.916;2023-02-28T14:41:00;13.90;;;10.95;;
21777;SDS011;11050;52.222;20.916;2023-02-28T14:43:31;17.58;;;11.90;;
21777;SDS011;11050;52.222;20.916;2023-02-28T14:45:58;12.38;;;9.45;;
21777;SDS011;11050;52.222;20.916;2023-02-28T14:48:31;13.75;;;9.52;;
21777;SDS011;11050;52.222;20.916;2023-02-28T14:50:59;12.40;;;9.93;;
21777;SDS011;11050;52.222;20.916;2023-02-28T14:53:27;14.98;;;9.18;;
21777;SDS011;11050;52.222;20.916;2023-02-28T14:56:00;13.82;;;9.23;;
21777;SDS011;11050;52.222;20.916;2023-02-28T15:00:55;14.20;;;9.75;;
21777;SDS011;11050;52.222;20.916;2023-02-28T15:03:34;13.68;;;10.02;;
21777;SDS011;11050;52.222;20.916;2023-02-28T15:06:06;13.57;;;9.98;;
21777;SDS011;11050;52.222;20.916;2023-02-28T15:08:42;16.20;;;10.13;;
21777;SDS011;11050;52.222;20.916;2023-02-28T15:11:16;15.73;;;9.68;;
21777;SDS011;11050;52.222;20.916;2023-02-28T15:13:48;13.32;;;10.43;;
21777;SDS011;11050;52.222;20.916;2023-02-28T15:16:19;14.73;;;11.20;;
21777;SDS011;11050;52.222;20.916;2023-02-28T15:21:26;14.30;;;10.18;;
21777;SDS011;11050;52.222;20.916;2023-02-28T15:26:32;21.45;;;15.15;;
21777;SDS011;11050;52.222;20.916;2023-02-28T15:29:07;17.15;;;11.13;;
21777;SDS011;11050;52.222;20.916;2023-02-28T15:31:44;18.98;;;12.18;;
21777;SDS011;11050;52.222;20.916;2023-02-28T15:40:12;14.55;;;9.80;;
21777;SDS011;11050;52.222;20.916;2023-02-28T15:42:58;16.63;;;10.73;;
21777;SDS011;11050;52.222;20.916;2023-02-28T15:45:47;13.18;;;9.27;;
21777;SDS011;11050;52.222;20.916;2023-02-28T15:48:23;18.90;;;11.63;;
21777;SDS011;11050;52.222;20.916;2023-02-28T15:53:32;18.52;;;11.38;;
21777;SDS011;11050;52.222;20.916;2023-02-28T15:56:18;18.52;;;12.85;;
21777;SDS011;11050;52.222;20.916;2023-02-28T15:58:53;19.90;;;11.90;;
21777;SDS011;11050;52.222;20.916;2023-02-28T16:01:27;15.03;;;9.90;;
21777;SDS011;11050;52.222;20.916;2023-02-28T16:04:00;17.90;;;10.83;;
21777;SDS011;11050;52.222;20.916;2023-02-28T16:06:34;21.10;;;12.30;;
21777;SDS011;11050;52.222;20.916;2023-02-28T16:09:09;18.47;;;11.73;;
21777;SDS011;11050;52.222;20.916;2023-02-28T16:11:42;22.83;;;12.90;;
21777;SDS011;11050;52.222;20.916;2023-02-28T16:14:13;21.60;;;11.23;;
21777;SDS011;11050;52.222;20.916;2023-02-28T16:16:46;19.10;;;11.87;;
21777;SDS011;11050;52.222;20.916;2023-02-28T16:19:15;23.73;;;11.87;;
21777;SDS011;11050;52.222;20.916;2023-02-28T16:21:41;27.70;;;11.00;;
21777;SDS011;11050;52.222;20.916;2023-02-28T16:24:07;17.23;;;10.50;;
21777;SDS011;11050;52.222;20.916;2023-02-28T16:26:33;40.17;;;18.07;;
21777;SDS011;11050;52.222;20.916;2023-02-28T16:29:00;40.83;;;20.07;;
21777;SDS011;11050;52.222;20.916;2023-02-28T16:31:27;36.13;;;15.47;;
21777;SDS011;11050;52.222;20.916;2023-02-28T16:33:53;29.20;;;14.67;;
21777;SDS011;11050;52.222;20.916;2023-02-28T16:36:21;43.60;;;20.60;;
21777;SDS011;11050;52.222;20.916;2023-02-28T16:38:53;41.57;;;21.43;;
21777;SDS011;11050;52.222;20.916;2023-02-28T16:41:24;32.00;;;16.93;;
21777;SDS011;11050;52.222;20.916;2023-02-28T16:43:54;27.97;;;14.30;;
21777;SDS011;11050;52.222;20.916;2023-02-28T16:46:26;25.37;;;12.53;;
21777;SDS011;11050;52.222;20.916;2023-02-28T16:48:59;23.20;;;13.60;;
21777;SDS011;11050;52.222;20.916;2023-02-28T16:51:25;26.87;;;13.33;;
21777;SDS011;11050;52.222;20.916;2023-02-28T16:53:51;21.90;;;11.50;;
21777;SDS011;11050;52.222;20.916;2023-02-28T16:56:21;25.20;;;13.83;;
21777;SDS011;11050;52.222;20.916;2023-02-28T16:58:49;25.73;;;12.67;;
21777;SDS011;11050;52.222;20.916;2023-02-28T17:01:18;23.07;;;12.13;;
21777;SDS011;11050;52.222;20.916;2023-02-28T17:03:50;23.73;;;11.60;;
21777;SDS011;11050;52.222;20.916;2023-02-28T17:06:20;23.27;;;12.73;;
21777;SDS011;11050;52.222;20.916;2023-02-28T17:08:49;26.17;;;12.57;;
21777;SDS011;11050;52.222;20.916;2023-02-28T17:11:16;27.83;;;13.43;;
21777;SDS011;11050;52.222;20.916;2023-02-28T17:13:43;21.67;;;11.47;;
21777;SDS011;11050;52.222;20.916;2023-02-28T17:16:13;25.17;;;13.87;;
21777;SDS011;11050;52.222;20.916;2023-02-28T17:18:53;25.33;;;12.50;;
21777;SDS011;11050;52.222;20.916;2023-02-28T17:21:23;30.87;;;13.00;;
21777;SDS011;11050;52.222;20.916;2023-02-28T17:23:48;25.77;;;13.40;;
21777;SDS011;11050;52.222;20.916;2023-02-28T17:26:15;26.23;;;12.83;;
21777;SDS011;11050;52.222;20.916;2023-02-28T17:28:45;26.27;;;13.30;;
21777;SDS011;11050;52.222;20.916;2023-02-28T17:31:14;26.30;;;12.90;;